This is the latest recevied weather packets stored in our database for station/object KO6TH-15. If no packets are shown the sender has not sent any weather packets the latest 10 day(s).
| Time | Temp. | Humidity | Pressure | Rain* | Wind** | Luminosity | Snow |
|---|---|---|---|---|---|---|---|
| 1778017370 | 15.56° C | 82% | 0 hPa | 0 mm | - | - | - |
| 1778016740 | 15.56° C | 83% | 0 hPa | 0 mm | - | - | - |
| 1778016140 | 15.56° C | 81% | 0 hPa | 0 mm | - | - | - |
| 1778015510 | 15.56° C | 81% | 0 hPa | 0 mm | - | - | - |
| 1778014910 | 15.56° C | 81% | 0 hPa | 0 mm | - | - | - |
| 1778014280 | 15.56° C | 80% | 0 hPa | 0 mm | - | - | - |
| 1778013650 | 15.56° C | 82% | 0 hPa | 0 mm | - | - | - |
| 1778013050 | 15° C | 83% | 0 hPa | 0 mm | - | - | - |
| 1778012420 | 14.44° C | 84% | 0 hPa | 0 mm | - | - | - |
| 1778011790 | 14.44° C | 84% | 0 hPa | 0 mm | - | - | - |
| 1778011190 | 14.44° C | 85% | 0 hPa | 0 mm | - | - | - |
| 1778010590 | 15° C | 82% | 0 hPa | 0 mm | - | - | - |
| 1778009990 | 15° C | 83% | 0 hPa | 0 mm | - | - | - |
| 1778009360 | 16.11° C | 80% | 0 hPa | 0 mm | - | - | - |
| 1778008760 | 16.67° C | 77% | 0 hPa | 0 mm | - | - | - |
| 1778008130 | 16.67° C | 76% | 0 hPa | 0 mm | - | - | - |
| 1778007530 | 16.11° C | 79% | 0 hPa | 0 mm | - | - | - |
| 1778006900 | 15.56° C | 82% | 0 hPa | 0 mm | - | - | - |
| 1778006270 | 15.56° C | 81% | 0 hPa | 0 mm | - | - | - |
| 1778005670 | 15.56° C | 81% | 0 hPa | 0 mm | - | - | - |
| 1778005040 | 16.11° C | 75% | 0 hPa | 0 mm | - | - | - |
| 1778004410 | 16.11° C | 76% | 0 hPa | 0 mm | - | - | - |
| 1778003810 | 17.22° C | 71% | 0 hPa | 0 mm | - | - | - |
| 1778003180 | 17.22° C | 71% | 0 hPa | 0 mm | - | - | - |
| 1778002550 | 16.11° C | 79% | 0 hPa | 0 mm | - | - | - |
* Rain latest hour (hover to see other rain measurements)
** Current wind speed in m/s (hover to see current wind gust speed)